KHOU/HOU METAR and TAF weather

Enter ICAO airport designator
Station Type Date Time Source
KHOU METAR 2022/01/29 11:53 UTC NOAA

KHOU 291153Z 00000KT 10SM CLR 03/M02 A3043 RMK AO2 SLP308 T00281017 10083 20017 53002


Station Type Date Time Source
KHOU Decoded METAR 2022/01/29 11:53 UTC NOAA

HOUSTON HOBBY AIRPORT, TX, United States (KHOU) 29-38N 095-17W 36M
Jan 29, 2022 - 06:53 AM EST / 2022.01.29 1153 UTC
Wind: Calm:0
Visibility: 10 mile(s):0
Sky conditions: clear
Temperature: 37.0 F (2.8 C)
Dew Point: 28.9 F (-1.7 C)
Relative Humidity: 72%
Pressure (altimeter): 30.43 in. Hg (1030 hPa)
Pressure tendency: 0.01 inches (0.2 hPa) higher than three hours ago
ob: KHOU 291153Z 00000KT 10SM CLR 03/M02 A3043 RMK AO2 SLP308 T00281017 10083 20017 53002
cycle: 12

Station Type Date Time Source
KHOU TAF 2022/01/29 12:22 UTC NOAA

TAF KHOU 291120Z 2912/3012 VRB03KT P6SM SKC
FM291600 20008KT P6SM SKC
FM300000 20005KT P6SM FEW250

Example: see airport list